createdAt,value
2022-10-06T00:02:06.397Z,10.97
2022-10-06T00:05:09.037Z,10.13
2022-10-06T00:08:11.800Z,10.45
2022-10-06T00:11:15.523Z,9.85
2022-10-06T00:14:18.041Z,13.73
2022-10-06T00:17:20.569Z,13.38
2022-10-06T00:20:25.706Z,9.07
2022-10-06T00:23:29.178Z,9.65
2022-10-06T00:26:31.738Z,10.88
2022-10-06T00:29:34.464Z,10.40
2022-10-06T00:32:37.941Z,10.40
2022-10-06T00:35:40.441Z,10.70
2022-10-06T00:38:43.323Z,10.32
2022-10-06T00:41:45.884Z,10.07
2022-10-06T00:44:49.827Z,14.57
2022-10-06T00:47:53.672Z,10.83
2022-10-06T00:50:57.431Z,9.90
2022-10-06T00:54:01.088Z,10.50
2022-10-06T00:57:05.535Z,10.88
2022-10-06T01:00:09.413Z,10.90
2022-10-06T01:03:16.118Z,10.13
2022-10-06T01:06:18.665Z,9.67
2022-10-06T01:09:22.352Z,11.75
2022-10-06T01:12:26.708Z,12.80
2022-10-06T01:15:29.419Z,8.88
2022-10-06T01:18:32.397Z,11.10
2022-10-06T01:21:39.380Z,10.60
2022-10-06T01:24:42.265Z,10.52
2022-10-06T01:27:50.904Z,10.68
2022-10-06T01:30:54.855Z,9.95
2022-10-06T01:33:58.026Z,11.17
2022-10-06T01:37:00.515Z,11.37
2022-10-06T01:40:03.303Z,9.30
2022-10-06T01:43:05.903Z,8.75
2022-10-06T01:46:08.489Z,8.98
2022-10-06T01:49:11.036Z,10.23
2022-10-06T01:52:13.617Z,12.33
2022-10-06T01:55:17.443Z,10.02
2022-10-06T01:58:20.248Z,10.60
2022-10-06T02:01:22.881Z,14.23
2022-10-06T02:04:25.539Z,10.80
2022-10-06T02:07:28.477Z,12.13
2022-10-06T02:10:31.495Z,9.27
2022-10-06T02:13:34.171Z,9.98
2022-10-06T02:16:36.699Z,9.27
2022-10-06T02:19:39.298Z,11.23
2022-10-06T02:22:43.880Z,9.70
2022-10-06T02:25:46.401Z,9.75
2022-10-06T02:28:50.239Z,10.93
2022-10-06T02:31:52.828Z,9.80
2022-10-06T02:34:55.871Z,11.10
2022-10-06T02:37:58.497Z,9.13
2022-10-06T02:41:02.257Z,9.75
2022-10-06T02:44:05.344Z,9.82
2022-10-06T02:47:14.371Z,8.23
2022-10-06T02:50:17.117Z,9.23
2022-10-06T02:53:20.049Z,9.00
2022-10-06T02:56:24.383Z,9.13
2022-10-06T02:59:27.783Z,10.50
2022-10-06T03:02:31.131Z,10.73
2022-10-06T03:05:33.743Z,9.97
2022-10-06T03:08:36.297Z,12.60
2022-10-06T03:11:40.969Z,10.25
2022-10-06T03:14:43.480Z,11.00
2022-10-06T03:17:49.523Z,11.20
2022-10-06T03:20:54.175Z,11.27
2022-10-06T03:23:57.825Z,9.37
2022-10-06T03:27:00.367Z,9.10
2022-10-06T03:30:03.699Z,10.95
2022-10-06T03:33:06.895Z,10.40
2022-10-06T03:36:17.491Z,10.83
2022-10-06T03:39:20.042Z,9.73
2022-10-06T03:42:22.691Z,12.43
2022-10-06T03:45:25.284Z,9.15
2022-10-06T03:48:33.523Z,9.45
2022-10-06T03:51:41.024Z,12.33
2022-10-06T03:54:43.544Z,10.57
2022-10-06T03:57:46.054Z,10.18
2022-10-06T04:00:48.591Z,10.70
2022-10-06T04:03:51.978Z,9.32
2022-10-06T04:06:54.613Z,11.97
2022-10-06T04:09:57.203Z,11.10
2022-10-06T04:12:59.824Z,10.98
2022-10-06T04:16:17.586Z,9.95
2022-10-06T04:19:20.301Z,9.55
2022-10-06T04:22:22.857Z,13.23
2022-10-06T04:25:25.377Z,10.80
2022-10-06T04:28:28.248Z,10.52
2022-10-06T04:31:33.769Z,11.82
2022-10-06T04:34:36.364Z,11.75
2022-10-06T04:37:39.609Z,13.20
2022-10-06T04:40:42.153Z,12.83
2022-10-06T04:43:48.811Z,13.82
2022-10-06T04:46:51.395Z,16.73
2022-10-06T04:49:53.953Z,15.82
2022-10-06T04:52:57.224Z,15.73
2022-10-06T04:56:12.167Z,17.10
2022-10-06T04:59:14.996Z,15.82
2022-10-06T05:02:17.736Z,13.38
2022-10-06T05:05:20.378Z,17.50
2022-10-06T05:08:22.906Z,15.43
2022-10-06T05:11:26.304Z,16.07
2022-10-06T05:14:28.888Z,18.00
2022-10-06T05:17:31.399Z,17.87
2022-10-06T05:20:36.454Z,41.28
2022-10-06T05:23:41.285Z,27.20
2022-10-06T05:26:43.933Z,29.63
2022-10-06T05:29:47.565Z,31.60
2022-10-06T05:32:50.699Z,40.55
2022-10-06T05:36:04.196Z,49.28
2022-10-06T05:39:07.304Z,54.73
2022-10-06T05:42:09.920Z,64.47
2022-10-06T05:45:12.511Z,65.95
2022-10-06T05:48:15.093Z,62.83
2022-10-06T05:51:19.334Z,51.13
2022-10-06T05:54:21.899Z,42.00
2022-10-06T05:57:24.442Z,40.53
2022-10-06T06:00:27.101Z,41.85
2022-10-06T06:03:29.750Z,50.42
2022-10-06T06:06:34.918Z,37.72
2022-10-06T06:09:37.885Z,40.10
2022-10-06T06:12:40.438Z,33.60
2022-10-06T06:16:01.257Z,34.97
2022-10-06T06:19:04.031Z,31.80
2022-10-06T06:22:06.606Z,29.75
2022-10-06T06:25:09.623Z,22.50
2022-10-06T06:28:12.176Z,23.27
2022-10-06T06:31:30.028Z,20.52
2022-10-06T06:34:32.584Z,21.48
2022-10-06T06:37:35.121Z,18.17
2022-10-06T06:40:41.590Z,16.13
2022-10-06T06:43:45.536Z,18.33
2022-10-06T06:46:49.423Z,17.05
2022-10-06T06:49:51.964Z,16.10
2022-10-06T06:52:55.269Z,16.20
2022-10-06T06:55:58.240Z,16.20
2022-10-06T06:59:02.199Z,17.37
2022-10-06T07:02:04.929Z,17.25
2022-10-06T07:05:07.490Z,16.15
2022-10-06T07:08:10.480Z,15.48
2022-10-06T07:11:18.219Z,17.60
2022-10-06T07:14:22.791Z,14.30
2022-10-06T07:17:44.095Z,18.12
2022-10-06T07:21:05.259Z,16.05
2022-10-06T07:24:27.865Z,18.80
2022-10-06T07:27:31.190Z,16.60
2022-10-06T07:30:38.407Z,16.70
2022-10-06T07:33:43.148Z,16.00
2022-10-06T07:36:46.940Z,15.68
2022-10-06T07:39:49.821Z,13.75
2022-10-06T07:42:52.498Z,12.02
2022-10-06T07:45:56.478Z,11.30
2022-10-06T07:48:59.665Z,12.35
2022-10-06T07:52:05.541Z,10.23
2022-10-06T07:55:08.330Z,13.02
2022-10-06T07:58:19.562Z,12.63
2022-10-06T08:01:22.207Z,13.40
2022-10-06T08:04:24.869Z,13.13
2022-10-06T08:07:27.375Z,11.20
2022-10-06T08:10:29.944Z,12.75
2022-10-06T08:13:32.626Z,11.90
2022-10-06T08:16:35.331Z,13.53
2022-10-06T08:19:38.359Z,14.00
2022-10-06T08:22:41.030Z,14.68
2022-10-06T08:25:50.992Z,12.13
2022-10-06T08:28:55.611Z,12.80
2022-10-06T08:31:59.733Z,12.50
2022-10-06T08:35:02.439Z,14.27
2022-10-06T08:38:05.503Z,14.18
2022-10-06T08:41:18.363Z,13.45
2022-10-06T08:44:32.486Z,16.05
2022-10-06T08:47:36.092Z,13.87
2022-10-06T08:51:38.126Z,13.62
2022-10-06T08:54:58.453Z,11.60
2022-10-06T08:58:31.223Z,14.75
2022-10-06T09:01:45.205Z,14.15
2022-10-06T09:04:49.821Z,14.97
2022-10-06T09:08:16.465Z,14.32
2022-10-06T09:11:32.026Z,13.82
2022-10-06T09:14:51.665Z,13.93
2022-10-06T09:18:02.387Z,14.87
2022-10-06T09:21:07.155Z,12.50
2022-10-06T09:24:18.422Z,11.65
2022-10-06T09:27:24.133Z,12.55
2022-10-06T09:30:27.139Z,11.55
2022-10-06T09:33:37.262Z,12.77
2022-10-06T09:37:09.911Z,15.20
2022-10-06T09:40:54.728Z,15.52
2022-10-06T09:44:00.088Z,14.27
2022-10-06T09:47:02.666Z,12.15
2022-10-06T09:50:27.851Z,13.10
2022-10-06T09:53:33.220Z,13.70
2022-10-06T09:56:45.325Z,14.25
2022-10-06T09:59:48.206Z,11.63
2022-10-06T10:03:06.055Z,10.13
2022-10-06T10:06:09.288Z,10.38
2022-10-06T10:09:21.797Z,12.13
2022-10-06T10:12:28.426Z,11.38
2022-10-06T10:15:39.447Z,12.82
2022-10-06T10:18:46.528Z,12.20
2022-10-06T10:21:49.384Z,13.05
2022-10-06T10:25:07.320Z,12.23
2022-10-06T10:28:34.796Z,10.52
2022-10-06T10:31:43.542Z,14.02
2022-10-06T10:35:00.548Z,10.90
2022-10-06T10:38:18.783Z,12.65
2022-10-06T10:41:25.039Z,10.60
2022-10-06T10:44:37.489Z,15.10
2022-10-06T10:47:43.039Z,10.77
2022-10-06T10:51:01.745Z,11.40
2022-10-06T10:54:21.673Z,10.48
2022-10-06T10:57:30.713Z,9.53
2022-10-06T11:00:36.526Z,9.07
2022-10-06T11:03:39.164Z,9.50
2022-10-06T11:07:14.416Z,11.43
2022-10-06T11:10:22.416Z,10.55
2022-10-06T11:13:51.293Z,9.70
2022-10-06T11:17:01.513Z,9.10
2022-10-06T11:20:11.744Z,9.15
2022-10-06T11:23:37.377Z,11.00
2022-10-06T11:26:41.212Z,11.95
2022-10-06T11:30:05.719Z,11.03
2022-10-06T11:33:16.724Z,11.48
2022-10-06T11:36:49.000Z,9.57
2022-10-06T11:40:09.789Z,9.20
2022-10-06T11:43:20.242Z,9.38
2022-10-06T11:46:46.214Z,10.67
2022-10-06T11:49:53.702Z,25.30
2022-10-06T11:52:56.498Z,12.18
2022-10-06T11:56:17.485Z,10.13
2022-10-06T11:59:31.802Z,10.10
2022-10-06T12:02:37.568Z,10.17
2022-10-06T12:05:56.867Z,12.35
2022-10-06T12:08:59.947Z,11.38
2022-10-06T12:12:08.374Z,11.07
2022-10-06T12:18:54.459Z,11.60
2022-10-06T12:22:16.986Z,13.20
2022-10-06T12:25:28.494Z,17.87
2022-10-06T12:28:42.028Z,12.52
2022-10-06T12:32:00.775Z,11.02
2022-10-06T12:35:10.506Z,11.20
2022-10-06T12:38:31.551Z,11.40
2022-10-06T12:42:00.336Z,12.13
2022-10-06T12:45:16.389Z,12.07
2022-10-06T12:48:24.994Z,18.33
2022-10-06T12:51:43.096Z,11.63
2022-10-06T12:55:03.462Z,10.50
2022-10-06T12:58:08.195Z,12.73
2022-10-06T13:01:12.902Z,12.52
2022-10-06T13:04:36.032Z,10.43
2022-10-06T13:07:57.380Z,16.63
2022-10-06T13:11:12.253Z,18.75
2022-10-06T13:14:15.194Z,14.15
2022-10-06T13:17:17.776Z,13.52
2022-10-06T13:20:36.789Z,14.38
2022-10-06T13:23:39.806Z,10.50
2022-10-06T13:26:42.748Z,10.68
2022-10-06T13:29:45.404Z,11.30
2022-10-06T13:32:57.643Z,13.85
2022-10-06T13:36:00.296Z,9.70
2022-10-06T13:39:07.315Z,11.93
2022-10-06T13:42:17.794Z,14.90
2022-10-06T13:45:20.524Z,12.98
2022-10-06T13:48:26.162Z,11.93
2022-10-06T13:51:30.999Z,14.10
2022-10-06T13:54:38.890Z,11.50
2022-10-06T13:58:06.515Z,10.35
2022-10-06T14:01:12.308Z,11.35
2022-10-06T14:04:18.422Z,9.85
2022-10-06T14:07:22.354Z,14.87
2022-10-06T14:10:31.633Z,11.70
2022-10-06T14:13:56.680Z,14.75
2022-10-06T14:16:59.426Z,10.00
2022-10-06T14:20:02.434Z,12.43
2022-10-06T14:23:43.339Z,10.23
2022-10-06T14:26:50.089Z,11.37
2022-10-06T14:29:53.045Z,10.55
2022-10-06T14:32:55.548Z,11.48
2022-10-06T14:35:58.164Z,10.63
2022-10-06T14:39:01.579Z,16.62
2022-10-06T14:42:04.327Z,14.30
2022-10-06T14:45:08.206Z,9.65
2022-10-06T14:48:12.085Z,12.10
2022-10-06T14:51:16.823Z,14.20
2022-10-06T14:54:20.468Z,11.32
2022-10-06T14:57:23.063Z,12.33
2022-10-06T15:00:29.272Z,12.43
2022-10-06T15:03:32.059Z,12.40
2022-10-06T15:06:53.204Z,14.65
2022-10-06T15:09:57.366Z,13.18
2022-10-06T15:13:00.423Z,12.23
2022-10-06T15:16:02.995Z,12.23
2022-10-06T15:19:05.799Z,10.68
2022-10-06T15:22:10.145Z,11.07
2022-10-06T15:25:32.782Z,9.00
2022-10-06T15:28:53.852Z,10.93
2022-10-06T15:31:56.719Z,10.27
2022-10-06T15:35:00.427Z,10.35
2022-10-06T15:38:05.115Z,11.20
2022-10-06T15:41:07.847Z,11.15
2022-10-06T15:44:11.710Z,10.20
2022-10-06T15:47:14.274Z,12.20
2022-10-06T15:50:19.184Z,14.35
2022-10-06T15:53:22.704Z,22.20
2022-10-06T15:56:28.966Z,24.90
2022-10-06T15:59:33.969Z,29.37
2022-10-06T16:02:38.062Z,38.28
2022-10-06T16:05:51.922Z,31.48
2022-10-06T16:08:54.570Z,30.40
2022-10-06T16:11:58.279Z,30.95
2022-10-06T16:15:00.933Z,30.33
2022-10-06T16:18:03.476Z,30.80
2022-10-06T16:21:06.282Z,25.08
2022-10-06T16:24:09.430Z,27.25
2022-10-06T16:27:13.680Z,21.42
2022-10-06T16:30:16.520Z,17.13
2022-10-06T16:33:19.011Z,17.60
2022-10-06T16:36:22.071Z,20.35
2022-10-06T16:39:24.741Z,18.60
2022-10-06T16:42:27.494Z,21.92
2022-10-06T16:45:30.057Z,23.23
2022-10-06T16:48:34.953Z,22.62
2022-10-06T16:51:39.984Z,23.27
2022-10-06T16:54:42.971Z,21.85
2022-10-06T16:57:45.581Z,20.00
2022-10-06T17:00:59.077Z,19.63
2022-10-06T17:04:12.046Z,20.65
2022-10-06T17:07:14.909Z,20.58
2022-10-06T17:10:21.379Z,25.65
2022-10-06T17:13:24.217Z,18.80
2022-10-06T17:16:33.506Z,20.57
2022-10-06T17:19:36.288Z,21.23
2022-10-06T17:22:39.265Z,19.02
2022-10-06T17:25:43.035Z,20.67
2022-10-06T17:28:48.744Z,18.77
2022-10-06T17:31:56.492Z,18.57
2022-10-06T17:34:59.316Z,19.70
2022-10-06T17:38:05.915Z,20.75
2022-10-06T17:41:17.314Z,18.85
2022-10-06T17:44:27.454Z,21.60
2022-10-06T17:47:30.511Z,21.67
2022-10-06T17:50:33.729Z,20.15
2022-10-06T17:53:40.995Z,21.08
2022-10-06T17:56:44.902Z,18.92
2022-10-06T17:59:48.311Z,19.08
2022-10-06T18:02:57.269Z,18.00
2022-10-06T18:06:01.059Z,18.87
2022-10-06T18:09:05.843Z,19.95
2022-10-06T18:12:10.597Z,18.58
2022-10-06T18:15:13.432Z,19.60
2022-10-06T18:18:16.147Z,18.53
2022-10-06T18:21:24.960Z,21.10
2022-10-06T18:24:30.233Z,17.95
2022-10-06T18:27:33.586Z,20.30
2022-10-06T18:30:36.217Z,21.02
2022-10-06T18:36:10.579Z,25.17
2022-10-06T18:37:02.042Z,28.48
2022-10-06T18:40:07.111Z,36.90
2022-10-06T18:43:09.870Z,33.55
2022-10-06T18:46:32.686Z,32.70
2022-10-06T18:49:35.672Z,29.90
2022-10-06T18:52:38.401Z,29.35
2022-10-06T18:55:40.960Z,30.92
2022-10-06T18:58:48.626Z,27.08
2022-10-06T19:01:51.499Z,28.85
2022-10-06T19:04:55.445Z,30.17
2022-10-06T19:07:58.587Z,27.95
2022-10-06T19:11:24.969Z,28.85
2022-10-06T19:14:31.347Z,30.15
2022-10-06T19:17:34.238Z,26.52
2022-10-06T19:20:36.999Z,28.80
2022-10-06T19:23:40.790Z,27.37
2022-10-06T19:26:46.108Z,25.48
2022-10-06T19:29:54.808Z,24.12
2022-10-06T19:32:57.631Z,24.67
2022-10-06T19:36:00.954Z,23.33
2022-10-06T19:39:06.032Z,22.52
2022-10-06T19:42:36.069Z,21.45
2022-10-06T19:45:39.121Z,23.67
2022-10-06T19:48:41.934Z,28.15
2022-10-06T19:51:44.491Z,43.73
2022-10-06T19:54:47.386Z,51.03
2022-10-06T19:57:51.187Z,55.12
2022-10-06T20:00:53.833Z,57.67
2022-10-06T20:03:56.438Z,33.15
2022-10-06T20:07:01.866Z,29.50
2022-10-06T20:10:04.811Z,24.65
2022-10-06T20:13:07.419Z,25.00
2022-10-06T20:16:12.077Z,20.05
2022-10-06T20:19:14.933Z,19.27
2022-10-06T20:22:17.561Z,17.17
2022-10-06T20:25:20.180Z,17.40
2022-10-06T20:28:22.941Z,16.33
2022-10-06T20:31:31.664Z,19.80
2022-10-06T20:34:34.693Z,15.97
2022-10-06T20:37:38.513Z,14.30
2022-10-06T20:40:49.114Z,15.73
2022-10-06T20:43:54.116Z,18.85
2022-10-06T20:46:56.764Z,14.70
2022-10-06T20:49:59.288Z,15.77
2022-10-06T20:53:01.833Z,13.70
2022-10-06T20:56:05.830Z,14.82
2022-10-06T20:59:11.546Z,17.50
2022-10-06T21:02:14.105Z,14.63
2022-10-06T21:05:16.917Z,14.45
2022-10-06T21:08:19.433Z,15.60
2022-10-06T21:11:23.856Z,15.85
2022-10-06T21:14:26.435Z,17.00
2022-10-06T21:17:29.009Z,17.12
2022-10-06T21:20:31.589Z,18.30
2022-10-06T21:23:40.068Z,15.77
2022-10-06T21:26:42.846Z,16.55
2022-10-06T21:29:45.507Z,15.32
2022-10-06T21:32:48.134Z,15.50
2022-10-06T21:36:01.076Z,14.45
2022-10-06T21:39:07.065Z,16.30
2022-10-06T21:42:09.767Z,19.15
2022-10-06T21:45:12.405Z,14.60
2022-10-06T21:48:15.250Z,14.48
2022-10-06T21:51:18.095Z,15.27
2022-10-06T21:54:22.046Z,14.80
2022-10-06T21:57:24.543Z,14.20
2022-10-06T22:00:27.120Z,14.68
2022-10-06T22:03:29.627Z,14.13
2022-10-06T22:06:34.341Z,14.73
2022-10-06T22:09:36.822Z,15.17
2022-10-06T22:12:39.368Z,20.45
2022-10-06T22:15:41.908Z,15.95
2022-10-06T22:18:45.195Z,17.20
2022-10-06T22:21:48.739Z,15.68
2022-10-06T22:24:51.404Z,17.10
2022-10-06T22:27:53.958Z,16.27
2022-10-06T22:31:08.089Z,16.85
2022-10-06T22:34:12.970Z,15.57
2022-10-06T22:37:15.550Z,16.67
2022-10-06T22:40:18.067Z,14.57
2022-10-06T22:43:20.665Z,22.87
2022-10-06T22:46:24.904Z,16.67
2022-10-06T22:49:27.867Z,21.58
2022-10-06T22:52:30.425Z,17.20
2022-10-06T22:55:33.119Z,17.90
2022-10-06T22:58:35.817Z,20.25
2022-10-06T23:01:38.432Z,24.92
2022-10-06T23:04:40.977Z,25.15
2022-10-06T23:07:43.853Z,22.70
2022-10-06T23:10:46.585Z,19.53
2022-10-06T23:13:50.763Z,26.20
2022-10-06T23:16:53.420Z,22.30
2022-10-06T23:19:56.078Z,22.50
2022-10-06T23:22:58.585Z,24.02
2022-10-06T23:26:09.731Z,23.70
2022-10-06T23:29:12.430Z,26.85
2022-10-06T23:32:15.017Z,24.67
2022-10-06T23:35:17.584Z,26.40
2022-10-06T23:38:20.192Z,27.42
2022-10-06T23:41:22.800Z,31.33
2022-10-06T23:44:25.486Z,26.98
2022-10-06T23:47:28.051Z,28.05
2022-10-06T23:50:33.506Z,27.90
2022-10-06T23:53:36.527Z,27.92
2022-10-06T23:56:39.109Z,26.50
2022-10-06T23:59:41.912Z,26.85
